sensor_id;sensor_type;location;lat;lon;timestamp;temperature;humidity
24408;DHT22;12542;50.924;4.516;2023-01-04T00:01:29;9.70;99.90
24408;DHT22;12542;50.924;4.516;2023-01-04T00:04:13;9.70;99.90
24408;DHT22;12542;50.924;4.516;2023-01-04T00:06:39;9.70;99.90
24408;DHT22;12542;50.924;4.516;2023-01-04T00:09:04;9.80;99.90
24408;DHT22;12542;50.924;4.516;2023-01-04T00:11:30;9.80;99.90
24408;DHT22;12542;50.924;4.516;2023-01-04T00:13:57;9.80;99.90
24408;DHT22;12542;50.924;4.516;2023-01-04T00:16:25;9.90;99.90
24408;DHT22;12542;50.924;4.516;2023-01-04T00:18:53;9.90;99.90
24408;DHT22;12542;50.924;4.516;2023-01-04T00:21:21;9.90;99.90
24408;DHT22;12542;50.924;4.516;2023-01-04T00:23:48;9.90;99.90
24408;DHT22;12542;50.924;4.516;2023-01-04T00:26:27;9.90;99.90
24408;DHT22;12542;50.924;4.516;2023-01-04T00:28:55;10.00;99.90
24408;DHT22;12542;50.924;4.516;2023-01-04T00:31:22;9.90;99.90
24408;DHT22;12542;50.924;4.516;2023-01-04T00:33:49;10.00;99.90
24408;DHT22;12542;50.924;4.516;2023-01-04T00:36:17;10.00;99.90
24408;DHT22;12542;50.924;4.516;2023-01-04T00:38:43;10.00;99.90
24408;DHT22;12542;50.924;4.516;2023-01-04T00:41:10;10.00;99.90
24408;DHT22;12542;50.924;4.516;2023-01-04T00:43:37;10.20;99.90
24408;DHT22;12542;50.924;4.516;2023-01-04T00:46:03;10.20;99.90
24408;DHT22;12542;50.924;4.516;2023-01-04T00:48:32;10.20;99.90
24408;DHT22;12542;50.924;4.516;2023-01-04T00:51:00;10.20;99.90
24408;DHT22;12542;50.924;4.516;2023-01-04T00:53:25;10.20;99.90
24408;DHT22;12542;50.924;4.516;2023-01-04T00:55:51;10.30;99.90
24408;DHT22;12542;50.924;4.516;2023-01-04T00:58:17;10.10;99.90
24408;DHT22;12542;50.924;4.516;2023-01-04T01:00:42;10.20;99.90
24408;DHT22;12542;50.924;4.516;2023-01-04T01:03:09;10.10;99.90
24408;DHT22;12542;50.924;4.516;2023-01-04T01:05:35;10.00;99.90
24408;DHT22;12542;50.924;4.516;2023-01-04T01:08:01;10.00;99.90
24408;DHT22;12542;50.924;4.516;2023-01-04T01:10:46;10.00;99.90
24408;DHT22;12542;50.924;4.516;2023-01-04T01:13:12;10.00;99.90
24408;DHT22;12542;50.924;4.516;2023-01-04T01:15:38;9.90;99.90
24408;DHT22;12542;50.924;4.516;2023-01-04T01:18:04;10.00;99.90
24408;DHT22;12542;50.924;4.516;2023-01-04T01:20:30;10.10;99.90
24408;DHT22;12542;50.924;4.516;2023-01-04T01:22:55;10.10;99.90
24408;DHT22;12542;50.924;4.516;2023-01-04T01:25:21;10.10;99.90
24408;DHT22;12542;50.924;4.516;2023-01-04T01:27:47;10.00;99.90
24408;DHT22;12542;50.924;4.516;2023-01-04T01:30:13;10.00;99.90
24408;DHT22;12542;50.924;4.516;2023-01-04T01:32:38;10.00;99.90
24408;DHT22;12542;50.924;4.516;2023-01-04T01:35:04;10.10;99.90
24408;DHT22;12542;50.924;4.516;2023-01-04T01:37:31;10.10;99.90
24408;DHT22;12542;50.924;4.516;2023-01-04T01:39:56;10.00;99.90
24408;DHT22;12542;50.924;4.516;2023-01-04T01:42:22;10.10;99.90
24408;DHT22;12542;50.924;4.516;2023-01-04T01:45:05;10.20;99.90
24408;DHT22;12542;50.924;4.516;2023-01-04T01:47:45;10.20;99.90
24408;DHT22;12542;50.924;4.516;2023-01-04T01:50:25;10.30;99.90
24408;DHT22;12542;50.924;4.516;2023-01-04T01:52:53;10.50;99.90
24408;DHT22;12542;50.924;4.516;2023-01-04T01:55:22;10.50;99.90
24408;DHT22;12542;50.924;4.516;2023-01-04T01:57:49;10.50;99.90
24408;DHT22;12542;50.924;4.516;2023-01-04T02:00:18;10.50;99.90
24408;DHT22;12542;50.924;4.516;2023-01-04T02:03:03;10.40;99.90
24408;DHT22;12542;50.924;4.516;2023-01-04T02:05:31;10.50;99.90
24408;DHT22;12542;50.924;4.516;2023-01-04T02:08:00;10.50;99.90
24408;DHT22;12542;50.924;4.516;2023-01-04T02:10:27;10.60;99.90
24408;DHT22;12542;50.924;4.516;2023-01-04T02:12:53;10.60;99.90
24408;DHT22;12542;50.924;4.516;2023-01-04T02:15:20;10.60;99.90
24408;DHT22;12542;50.924;4.516;2023-01-04T02:18:02;10.50;99.90
24408;DHT22;12542;50.924;4.516;2023-01-04T02:20:48;10.60;99.90
24408;DHT22;12542;50.924;4.516;2023-01-04T02:32:31;10.70;99.90
24408;DHT22;12542;50.924;4.516;2023-01-04T02:35:24;10.70;99.90
24408;DHT22;12542;50.924;4.516;2023-01-04T02:38:18;10.70;99.90
24408;DHT22;12542;50.924;4.516;2023-01-04T02:43:49;10.90;99.90
24408;DHT22;12542;50.924;4.516;2023-01-04T02:46:45;11.00;99.90
24408;DHT22;12542;50.924;4.516;2023-01-04T02:49:13;11.10;99.90
24408;DHT22;12542;50.924;4.516;2023-01-04T02:51:57;11.00;99.90
24408;DHT22;12542;50.924;4.516;2023-01-04T02:54:26;11.00;99.90
24408;DHT22;12542;50.924;4.516;2023-01-04T03:02:27;11.20;99.90
24408;DHT22;12542;50.924;4.516;2023-01-04T03:06:01;11.10;99.90
24408;DHT22;12542;50.924;4.516;2023-01-04T03:08:39;11.10;99.90
24408;DHT22;12542;50.924;4.516;2023-01-04T03:11:12;11.20;99.90
24408;DHT22;12542;50.924;4.516;2023-01-04T03:14:20;11.30;99.90
24408;DHT22;12542;50.924;4.516;2023-01-04T03:16:47;11.30;99.90
24408;DHT22;12542;50.924;4.516;2023-01-04T03:19:15;11.40;99.90
24408;DHT22;12542;50.924;4.516;2023-01-04T03:22:02;11.40;99.90
24408;DHT22;12542;50.924;4.516;2023-01-04T03:24:31;11.40;99.90
24408;DHT22;12542;50.924;4.516;2023-01-04T03:27:16;11.60;99.90
24408;DHT22;12542;50.924;4.516;2023-01-04T03:30:07;11.60;99.90
24408;DHT22;12542;50.924;4.516;2023-01-04T03:33:02;11.60;99.90
24408;DHT22;12542;50.924;4.516;2023-01-04T03:35:54;11.50;99.90
24408;DHT22;12542;50.924;4.516;2023-01-04T03:45:17;11.40;99.90
24408;DHT22;12542;50.924;4.516;2023-01-04T03:48:12;11.30;99.90
24408;DHT22;12542;50.924;4.516;2023-01-04T03:56:33;11.50;99.90
24408;DHT22;12542;50.924;4.516;2023-01-04T03:59:00;11.50;99.90
24408;DHT22;12542;50.924;4.516;2023-01-04T04:01:27;11.60;99.90
24408;DHT22;12542;50.924;4.516;2023-01-04T04:03:54;11.70;99.90
24408;DHT22;12542;50.924;4.516;2023-01-04T04:06:39;11.60;99.90
24408;DHT22;12542;50.924;4.516;2023-01-04T04:09:23;11.80;99.90
24408;DHT22;12542;50.924;4.516;2023-01-04T04:11:49;11.80;99.90
24408;DHT22;12542;50.924;4.516;2023-01-04T04:14:18;12.00;99.90
24408;DHT22;12542;50.924;4.516;2023-01-04T04:16:44;11.90;99.90
24408;DHT22;12542;50.924;4.516;2023-01-04T04:19:10;11.80;99.90
24408;DHT22;12542;50.924;4.516;2023-01-04T04:21:36;11.80;99.90
24408;DHT22;12542;50.924;4.516;2023-01-04T04:24:02;11.90;99.90
24408;DHT22;12542;50.924;4.516;2023-01-04T04:26:28;11.90;99.90
24408;DHT22;12542;50.924;4.516;2023-01-04T04:28:54;11.90;99.90
24408;DHT22;12542;50.924;4.516;2023-01-04T04:31:19;11.90;99.90
24408;DHT22;12542;50.924;4.516;2023-01-04T04:33:45;12.00;99.90
24408;DHT22;12542;50.924;4.516;2023-01-04T04:36:11;11.90;99.90
24408;DHT22;12542;50.924;4.516;2023-01-04T04:38:37;11.90;99.90
24408;DHT22;12542;50.924;4.516;2023-01-04T04:41:11;12.00;99.90
24408;DHT22;12542;50.924;4.516;2023-01-04T04:43:56;12.10;99.90
24408;DHT22;12542;50.924;4.516;2023-01-04T04:46:22;12.30;99.90
24408;DHT22;12542;50.924;4.516;2023-01-04T04:48:49;12.30;99.90
24408;DHT22;12542;50.924;4.516;2023-01-04T04:51:15;12.30;99.90
24408;DHT22;12542;50.924;4.516;2023-01-04T04:53:41;12.30;99.90
24408;DHT22;12542;50.924;4.516;2023-01-04T04:56:08;12.40;99.90
24408;DHT22;12542;50.924;4.516;2023-01-04T04:58:35;12.30;99.90
24408;DHT22;12542;50.924;4.516;2023-01-04T05:01:01;12.40;99.90
24408;DHT22;12542;50.924;4.516;2023-01-04T05:03:27;12.30;99.90
24408;DHT22;12542;50.924;4.516;2023-01-04T05:05:52;12.20;99.90
24408;DHT22;12542;50.924;4.516;2023-01-04T05:08:19;12.30;99.90
24408;DHT22;12542;50.924;4.516;2023-01-04T05:10:45;12.30;99.90
24408;DHT22;12542;50.924;4.516;2023-01-04T05:13:11;12.30;99.90
24408;DHT22;12542;50.924;4.516;2023-01-04T05:15:42;12.40;99.90
24408;DHT22;12542;50.924;4.516;2023-01-04T05:18:10;12.30;99.90
24408;DHT22;12542;50.924;4.516;2023-01-04T05:20:36;12.40;99.90
24408;DHT22;12542;50.924;4.516;2023-01-04T05:23:03;12.30;99.90
24408;DHT22;12542;50.924;4.516;2023-01-04T05:25:29;12.20;99.90
24408;DHT22;12542;50.924;4.516;2023-01-04T05:27:55;12.30;99.90
24408;DHT22;12542;50.924;4.516;2023-01-04T05:30:20;12.40;99.90
24408;DHT22;12542;50.924;4.516;2023-01-04T05:33:05;12.40;99.90
24408;DHT22;12542;50.924;4.516;2023-01-04T05:35:31;12.50;99.90
24408;DHT22;12542;50.924;4.516;2023-01-04T05:37:57;12.60;99.90
24408;DHT22;12542;50.924;4.516;2023-01-04T05:40:23;12.70;99.90
24408;DHT22;12542;50.924;4.516;2023-01-04T05:42:50;12.60;99.90
24408;DHT22;12542;50.924;4.516;2023-01-04T05:45:17;12.40;99.90
24408;DHT22;12542;50.924;4.516;2023-01-04T05:47:44;12.60;99.90
24408;DHT22;12542;50.924;4.516;2023-01-04T05:50:10;12.50;99.90
24408;DHT22;12542;50.924;4.516;2023-01-04T05:52:36;12.60;99.90
24408;DHT22;12542;50.924;4.516;2023-01-04T05:55:03;12.60;99.90
24408;DHT22;12542;50.924;4.516;2023-01-04T05:57:29;12.60;99.90
24408;DHT22;12542;50.924;4.516;2023-01-04T05:59:55;12.70;99.90
24408;DHT22;12542;50.924;4.516;2023-01-04T06:02:28;12.70;99.90
24408;DHT22;12542;50.924;4.516;2023-01-04T06:04:53;12.70;99.90
24408;DHT22;12542;50.924;4.516;2023-01-04T06:07:20;12.80;99.90
24408;DHT22;12542;50.924;4.516;2023-01-04T06:09:48;12.90;99.90
24408;DHT22;12542;50.924;4.516;2023-01-04T06:12:14;12.90;99.90
24408;DHT22;12542;50.924;4.516;2023-01-04T06:14:42;12.80;99.90
24408;DHT22;12542;50.924;4.516;2023-01-04T06:17:09;12.80;99.90
24408;DHT22;12542;50.924;4.516;2023-01-04T06:19:34;12.90;99.90
24408;DHT22;12542;50.924;4.516;2023-01-04T06:22:00;12.90;99.90
24408;DHT22;12542;50.924;4.516;2023-01-04T06:24:27;12.80;99.90
24408;DHT22;12542;50.924;4.516;2023-01-04T06:26:53;12.70;99.90
24408;DHT22;12542;50.924;4.516;2023-01-04T06:29:19;12.70;99.90
24408;DHT22;12542;50.924;4.516;2023-01-04T06:31:45;12.70;99.90
24408;DHT22;12542;50.924;4.516;2023-01-04T06:34:11;12.60;99.90
24408;DHT22;12542;50.924;4.516;2023-01-04T06:36:38;12.60;99.90
24408;DHT22;12542;50.924;4.516;2023-01-04T06:39:04;12.50;99.90
24408;DHT22;12542;50.924;4.516;2023-01-04T06:41:30;12.40;99.90
24408;DHT22;12542;50.924;4.516;2023-01-04T06:43:56;12.40;99.90
24408;DHT22;12542;50.924;4.516;2023-01-04T06:46:21;12.50;99.90
24408;DHT22;12542;50.924;4.516;2023-01-04T06:48:49;12.60;99.90
24408;DHT22;12542;50.924;4.516;2023-01-04T06:51:20;12.60;99.90
24408;DHT22;12542;50.924;4.516;2023-01-04T06:53:46;12.60;99.90
24408;DHT22;12542;50.924;4.516;2023-01-04T06:56:12;12.60;99.90
24408;DHT22;12542;50.924;4.516;2023-01-04T06:58:38;12.70;99.90
24408;DHT22;12542;50.924;4.516;2023-01-04T07:01:04;12.70;99.90
24408;DHT22;12542;50.924;4.516;2023-01-04T07:03:30;12.70;99.90
24408;DHT22;12542;50.924;4.516;2023-01-04T07:06:06;12.80;99.90
24408;DHT22;12542;50.924;4.516;2023-01-04T07:08:35;12.70;99.90
24408;DHT22;12542;50.924;4.516;2023-01-04T07:11:01;12.80;99.90
24408;DHT22;12542;50.924;4.516;2023-01-04T07:13:27;12.80;99.90
24408;DHT22;12542;50.924;4.516;2023-01-04T07:15:53;12.90;99.90
24408;DHT22;12542;50.924;4.516;2023-01-04T07:18:18;12.70;99.90
24408;DHT22;12542;50.924;4.516;2023-01-04T07:20:44;12.70;99.90
24408;DHT22;12542;50.924;4.516;2023-01-04T07:23:10;12.80;99.90
24408;DHT22;12542;50.924;4.516;2023-01-04T07:25:35;12.90;99.90
24408;DHT22;12542;50.924;4.516;2023-01-04T07:28:02;13.00;99.90
24408;DHT22;12542;50.924;4.516;2023-01-04T07:30:31;13.00;99.90
24408;DHT22;12542;50.924;4.516;2023-01-04T07:32:56;13.10;99.90
24408;DHT22;12542;50.924;4.516;2023-01-04T07:35:22;13.00;99.90
24408;DHT22;12542;50.924;4.516;2023-01-04T07:37:49;13.10;99.90
24408;DHT22;12542;50.924;4.516;2023-01-04T07:40:15;13.00;99.90
24408;DHT22;12542;50.924;4.516;2023-01-04T07:42:41;13.00;99.90
24408;DHT22;12542;50.924;4.516;2023-01-04T07:45:07;13.10;99.90
24408;DHT22;12542;50.924;4.516;2023-01-04T07:47:34;13.00;99.90
24408;DHT22;12542;50.924;4.516;2023-01-04T07:50:00;13.00;99.90
24408;DHT22;12542;50.924;4.516;2023-01-04T07:52:26;13.00;99.90
24408;DHT22;12542;50.924;4.516;2023-01-04T07:54:53;13.00;99.90
24408;DHT22;12542;50.924;4.516;2023-01-04T07:57:18;13.00;99.90
24408;DHT22;12542;50.924;4.516;2023-01-04T07:59:45;13.00;99.90
24408;DHT22;12542;50.924;4.516;2023-01-04T08:02:11;13.10;99.90
24408;DHT22;12542;50.924;4.516;2023-01-04T08:04:38;13.00;99.90
24408;DHT22;12542;50.924;4.516;2023-01-04T08:07:03;13.00;99.90
24408;DHT22;12542;50.924;4.516;2023-01-04T08:09:30;13.00;99.90
24408;DHT22;12542;50.924;4.516;2023-01-04T08:11:57;13.00;99.90
24408;DHT22;12542;50.924;4.516;2023-01-04T08:14:23;13.00;99.90
24408;DHT22;12542;50.924;4.516;2023-01-04T08:16:49;13.00;99.90
24408;DHT22;12542;50.924;4.516;2023-01-04T08:19:19;13.00;99.90
24408;DHT22;12542;50.924;4.516;2023-01-04T08:21:48;13.00;99.90
24408;DHT22;12542;50.924;4.516;2023-01-04T08:24:17;12.90;99.90
24408;DHT22;12542;50.924;4.516;2023-01-04T08:26:44;12.80;99.90
24408;DHT22;12542;50.924;4.516;2023-01-04T08:29:10;12.60;99.90
24408;DHT22;12542;50.924;4.516;2023-01-04T08:31:36;12.80;99.90
24408;DHT22;12542;50.924;4.516;2023-01-04T08:34:04;12.80;99.90
24408;DHT22;12542;50.924;4.516;2023-01-04T08:36:42;12.90;99.90
24408;DHT22;12542;50.924;4.516;2023-01-04T08:39:10;13.00;99.90
24408;DHT22;12542;50.924;4.516;2023-01-04T08:41:38;13.00;99.90
24408;DHT22;12542;50.924;4.516;2023-01-04T08:44:19;13.20;99.90
24408;DHT22;12542;50.924;4.516;2023-01-04T08:46:46;13.20;99.90
24408;DHT22;12542;50.924;4.516;2023-01-04T08:49:12;13.30;99.90
24408;DHT22;12542;50.924;4.516;2023-01-04T08:51:38;13.30;99.90
24408;DHT22;12542;50.924;4.516;2023-01-04T08:54:04;13.30;99.90
24408;DHT22;12542;50.924;4.516;2023-01-04T08:56:29;13.40;99.90
24408;DHT22;12542;50.924;4.516;2023-01-04T08:58:55;13.50;99.90
24408;DHT22;12542;50.924;4.516;2023-01-04T09:01:21;13.40;99.90
24408;DHT22;12542;50.924;4.516;2023-01-04T09:03:46;13.40;99.90
24408;DHT22;12542;50.924;4.516;2023-01-04T09:06:14;13.40;99.90
24408;DHT22;12542;50.924;4.516;2023-01-04T09:08:41;13.50;99.90
24408;DHT22;12542;50.924;4.516;2023-01-04T09:11:12;13.60;99.90
24408;DHT22;12542;50.924;4.516;2023-01-04T09:13:38;13.50;99.90
24408;DHT22;12542;50.924;4.516;2023-01-04T09:16:08;13.50;99.90
24408;DHT22;12542;50.924;4.516;2023-01-04T09:18:34;13.70;99.90
24408;DHT22;12542;50.924;4.516;2023-01-04T09:21:05;13.70;99.90
24408;DHT22;12542;50.924;4.516;2023-01-04T09:23:31;13.70;99.90
24408;DHT22;12542;50.924;4.516;2023-01-04T09:26:03;13.70;99.90
24408;DHT22;12542;50.924;4.516;2023-01-04T09:28:29;13.80;99.90
24408;DHT22;12542;50.924;4.516;2023-01-04T09:30:55;13.70;99.90
24408;DHT22;12542;50.924;4.516;2023-01-04T09:33:21;13.70;99.90
24408;DHT22;12542;50.924;4.516;2023-01-04T09:35:47;13.50;99.90
24408;DHT22;12542;50.924;4.516;2023-01-04T09:38:13;13.50;99.90
24408;DHT22;12542;50.924;4.516;2023-01-04T09:43:36;13.60;99.90
24408;DHT22;12542;50.924;4.516;2023-01-04T09:46:07;13.70;99.90
24408;DHT22;12542;50.924;4.516;2023-01-04T09:48:36;13.60;99.90
24408;DHT22;12542;50.924;4.516;2023-01-04T09:51:11;13.60;99.90
24408;DHT22;12542;50.924;4.516;2023-01-04T09:54:18;13.50;99.90
24408;DHT22;12542;50.924;4.516;2023-01-04T09:56:38;13.40;99.90
24408;DHT22;12542;50.924;4.516;2023-01-04T09:59:13;13.50;99.90
24408;DHT22;12542;50.924;4.516;2023-01-04T10:06:40;13.70;99.90
24408;DHT22;12542;50.924;4.516;2023-01-04T10:09:11;13.80;99.90
24408;DHT22;12542;50.924;4.516;2023-01-04T10:25:19;13.50;99.90
24408;DHT22;12542;50.924;4.516;2023-01-04T10:30:37;13.40;99.90
24408;DHT22;12542;50.924;4.516;2023-01-04T10:35:32;13.20;99.90
24408;DHT22;12542;50.924;4.516;2023-01-04T10:38:07;13.30;99.90
24408;DHT22;12542;50.924;4.516;2023-01-04T10:40:37;13.30;99.90
24408;DHT22;12542;50.924;4.516;2023-01-04T10:43:05;13.30;99.90
24408;DHT22;12542;50.924;4.516;2023-01-04T10:46:10;13.40;99.90
24408;DHT22;12542;50.924;4.516;2023-01-04T10:51:15;13.40;99.90
24408;DHT22;12542;50.924;4.516;2023-01-04T10:53:58;13.50;99.90
24408;DHT22;12542;50.924;4.516;2023-01-04T10:56:50;13.60;99.90
24408;DHT22;12542;50.924;4.516;2023-01-04T10:59:43;13.60;99.90
24408;DHT22;12542;50.924;4.516;2023-01-04T11:02:26;13.70;99.90
24408;DHT22;12542;50.924;4.516;2023-01-04T11:04:58;13.80;99.90
24408;DHT22;12542;50.924;4.516;2023-01-04T11:07:33;13.90;99.90
24408;DHT22;12542;50.924;4.516;2023-01-04T11:12:45;14.00;99.90
24408;DHT22;12542;50.924;4.516;2023-01-04T11:15:11;13.90;99.90
24408;DHT22;12542;50.924;4.516;2023-01-04T11:17:37;13.90;99.90
24408;DHT22;12542;50.924;4.516;2023-01-04T11:20:04;13.90;99.90
24408;DHT22;12542;50.924;4.516;2023-01-04T11:22:52;14.00;99.90
24408;DHT22;12542;50.924;4.516;2023-01-04T11:25:21;14.10;99.90
24408;DHT22;12542;50.924;4.516;2023-01-04T11:27:55;14.00;99.90
24408;DHT22;12542;50.924;4.516;2023-01-04T11:30:30;14.00;99.90
24408;DHT22;12542;50.924;4.516;2023-01-04T11:33:00;13.70;99.90
24408;DHT22;12542;50.924;4.516;2023-01-04T11:35:46;13.60;99.90
24408;DHT22;12542;50.924;4.516;2023-01-04T11:38:21;13.70;99.90
24408;DHT22;12542;50.924;4.516;2023-01-04T11:41:02;13.70;99.90
24408;DHT22;12542;50.924;4.516;2023-01-04T11:43:33;13.50;99.90
24408;DHT22;12542;50.924;4.516;2023-01-04T11:46:06;13.60;99.90
24408;DHT22;12542;50.924;4.516;2023-01-04T11:48:35;13.60;99.90
24408;DHT22;12542;50.924;4.516;2023-01-04T11:51:02;13.70;99.90
24408;DHT22;12542;50.924;4.516;2023-01-04T11:53:36;13.70;99.90
24408;DHT22;12542;50.924;4.516;2023-01-04T11:56:16;13.80;99.90
24408;DHT22;12542;50.924;4.516;2023-01-04T11:58:45;13.90;99.90
24408;DHT22;12542;50.924;4.516;2023-01-04T12:01:26;14.00;99.90
24408;DHT22;12542;50.924;4.516;2023-01-04T12:03:52;13.90;99.90
24408;DHT22;12542;50.924;4.516;2023-01-04T12:06:30;13.90;99.90
24408;DHT22;12542;50.924;4.516;2023-01-04T12:08:56;13.90;99.90
24408;DHT22;12542;50.924;4.516;2023-01-04T12:11:32;13.90;99.90
24408;DHT22;12542;50.924;4.516;2023-01-04T12:13:59;14.00;99.90
24408;DHT22;12542;50.924;4.516;2023-01-04T12:16:40;14.10;99.90
24408;DHT22;12542;50.924;4.516;2023-01-04T12:19:13;14.10;99.90
24408;DHT22;12542;50.924;4.516;2023-01-04T12:21:42;14.00;99.90
24408;DHT22;12542;50.924;4.516;2023-01-04T12:24:10;14.00;99.90
24408;DHT22;12542;50.924;4.516;2023-01-04T12:26:40;13.80;99.90
24408;DHT22;12542;50.924;4.516;2023-01-04T12:31:52;14.00;99.90
24408;DHT22;12542;50.924;4.516;2023-01-04T12:34:43;14.00;99.90
24408;DHT22;12542;50.924;4.516;2023-01-04T12:37:11;14.00;99.90
24408;DHT22;12542;50.924;4.516;2023-01-04T12:39:55;14.00;99.90
24408;DHT22;12542;50.924;4.516;2023-01-04T12:42:21;14.10;99.90
24408;DHT22;12542;50.924;4.516;2023-01-04T12:50:18;14.30;99.90
24408;DHT22;12542;50.924;4.516;2023-01-04T12:52:50;14.30;99.90
24408;DHT22;12542;50.924;4.516;2023-01-04T12:58:02;14.10;99.90
24408;DHT22;12542;50.924;4.516;2023-01-04T13:08:18;14.30;99.90
24408;DHT22;12542;50.924;4.516;2023-01-04T13:10:52;14.30;99.90
24408;DHT22;12542;50.924;4.516;2023-01-04T13:23:59;14.20;99.90
24408;DHT22;12542;50.924;4.516;2023-01-04T13:26:40;14.20;99.90
24408;DHT22;12542;50.924;4.516;2023-01-04T13:29:31;14.20;99.90
24408;DHT22;12542;50.924;4.516;2023-01-04T13:32:04;14.30;99.90
24408;DHT22;12542;50.924;4.516;2023-01-04T13:34:34;14.30;99.90
24408;DHT22;12542;50.924;4.516;2023-01-04T13:37:03;14.40;99.90
24408;DHT22;12542;50.924;4.516;2023-01-04T13:39:29;14.40;99.90
24408;DHT22;12542;50.924;4.516;2023-01-04T13:41:56;14.50;99.90
24408;DHT22;12542;50.924;4.516;2023-01-04T13:44:49;14.50;99.90
24408;DHT22;12542;50.924;4.516;2023-01-04T13:47:18;14.60;99.90
24408;DHT22;12542;50.924;4.516;2023-01-04T13:49:44;14.50;99.90
24408;DHT22;12542;50.924;4.516;2023-01-04T13:52:28;14.50;99.90
24408;DHT22;12542;50.924;4.516;2023-01-04T13:55:34;14.60;99.90
24408;DHT22;12542;50.924;4.516;2023-01-04T13:58:02;14.70;99.90
24408;DHT22;12542;50.924;4.516;2023-01-04T14:00:31;14.70;99.90
24408;DHT22;12542;50.924;4.516;2023-01-04T14:03:29;14.50;99.90
24408;DHT22;12542;50.924;4.516;2023-01-04T14:08:43;14.70;99.90
24408;DHT22;12542;50.924;4.516;2023-01-04T14:14:33;14.70;99.90
24408;DHT22;12542;50.924;4.516;2023-01-04T14:19:40;14.60;99.90
24408;DHT22;12542;50.924;4.516;2023-01-04T14:24:56;14.50;99.90
24408;DHT22;12542;50.924;4.516;2023-01-04T14:27:48;14.50;99.90
24408;DHT22;12542;50.924;4.516;2023-01-04T14:32:58;14.60;99.90
24408;DHT22;12542;50.924;4.516;2023-01-04T14:35:26;14.60;99.90
24408;DHT22;12542;50.924;4.516;2023-01-04T14:37:53;14.70;99.90
24408;DHT22;12542;50.924;4.516;2023-01-04T14:40:25;14.60;99.90
24408;DHT22;12542;50.924;4.516;2023-01-04T14:42:53;14.50;99.90
24408;DHT22;12542;50.924;4.516;2023-01-04T14:45:19;14.60;99.90
24408;DHT22;12542;50.924;4.516;2023-01-04T14:47:44;14.60;99.90
24408;DHT22;12542;50.924;4.516;2023-01-04T14:50:12;14.50;99.90
24408;DHT22;12542;50.924;4.516;2023-01-04T14:52:38;14.40;99.90
24408;DHT22;12542;50.924;4.516;2023-01-04T14:55:04;14.40;99.90
24408;DHT22;12542;50.924;4.516;2023-01-04T14:57:31;14.50;99.90
24408;DHT22;12542;50.924;4.516;2023-01-04T14:59:57;14.50;99.90
24408;DHT22;12542;50.924;4.516;2023-01-04T15:02:23;14.50;99.90
24408;DHT22;12542;50.924;4.516;2023-01-04T15:04:51;14.40;99.90
24408;DHT22;12542;50.924;4.516;2023-01-04T15:07:46;14.40;99.90
24408;DHT22;12542;50.924;4.516;2023-01-04T15:10:21;14.40;99.90
24408;DHT22;12542;50.924;4.516;2023-01-04T15:12:46;14.30;99.90
24408;DHT22;12542;50.924;4.516;2023-01-04T15:15:12;14.20;99.90
24408;DHT22;12542;50.924;4.516;2023-01-04T15:17:38;14.20;99.90
24408;DHT22;12542;50.924;4.516;2023-01-04T15:20:04;14.30;99.90
24408;DHT22;12542;50.924;4.516;2023-01-04T15:22:30;14.10;99.90
24408;DHT22;12542;50.924;4.516;2023-01-04T15:24:55;14.10;99.90
24408;DHT22;12542;50.924;4.516;2023-01-04T15:27:21;14.00;99.90
24408;DHT22;12542;50.924;4.516;2023-01-04T15:29:47;13.80;99.90
24408;DHT22;12542;50.924;4.516;2023-01-04T15:32:13;13.60;99.90
24408;DHT22;12542;50.924;4.516;2023-01-04T15:34:39;13.60;99.90
24408;DHT22;12542;50.924;4.516;2023-01-04T15:37:05;13.60;99.90
24408;DHT22;12542;50.924;4.516;2023-01-04T15:39:34;13.60;99.90
24408;DHT22;12542;50.924;4.516;2023-01-04T15:42:00;13.60;99.90
24408;DHT22;12542;50.924;4.516;2023-01-04T15:44:45;13.60;99.90
24408;DHT22;12542;50.924;4.516;2023-01-04T15:47:10;13.50;99.90
24408;DHT22;12542;50.924;4.516;2023-01-04T15:49:36;13.50;99.90
24408;DHT22;12542;50.924;4.516;2023-01-04T15:52:02;13.40;99.90
24408;DHT22;12542;50.924;4.516;2023-01-04T15:54:28;13.40;99.90
24408;DHT22;12542;50.924;4.516;2023-01-04T15:56:54;13.40;99.90
24408;DHT22;12542;50.924;4.516;2023-01-04T15:59:20;13.30;99.90
24408;DHT22;12542;50.924;4.516;2023-01-04T16:01:46;13.50;99.90
24408;DHT22;12542;50.924;4.516;2023-01-04T16:04:13;13.50;99.90
24408;DHT22;12542;50.924;4.516;2023-01-04T16:06:39;13.50;99.90
24408;DHT22;12542;50.924;4.516;2023-01-04T16:09:05;13.60;99.90
24408;DHT22;12542;50.924;4.516;2023-01-04T16:11:32;13.60;99.90
24408;DHT22;12542;50.924;4.516;2023-01-04T16:13:59;13.60;99.90
24408;DHT22;12542;50.924;4.516;2023-01-04T16:16:26;13.50;99.90
24408;DHT22;12542;50.924;4.516;2023-01-04T16:18:54;13.50;99.90
24408;DHT22;12542;50.924;4.516;2023-01-04T16:21:23;13.50;99.90
24408;DHT22;12542;50.924;4.516;2023-01-04T16:23:56;13.60;99.90
24408;DHT22;12542;50.924;4.516;2023-01-04T16:26:22;13.50;99.90
24408;DHT22;12542;50.924;4.516;2023-01-04T16:28:53;13.50;99.90
24408;DHT22;12542;50.924;4.516;2023-01-04T16:31:20;13.60;99.90
24408;DHT22;12542;50.924;4.516;2023-01-04T16:33:46;13.60;99.90
24408;DHT22;12542;50.924;4.516;2023-01-04T16:36:14;13.50;99.90
24408;DHT22;12542;50.924;4.516;2023-01-04T16:38:44;13.60;99.90
24408;DHT22;12542;50.924;4.516;2023-01-04T16:41:16;13.60;99.90
24408;DHT22;12542;50.924;4.516;2023-01-04T16:43:46;13.70;99.90
24408;DHT22;12542;50.924;4.516;2023-01-04T16:46:15;13.70;99.90
24408;DHT22;12542;50.924;4.516;2023-01-04T16:48:43;13.80;99.90
24408;DHT22;12542;50.924;4.516;2023-01-04T16:51:09;13.80;99.90
24408;DHT22;12542;50.924;4.516;2023-01-04T16:53:35;13.80;99.90
24408;DHT22;12542;50.924;4.516;2023-01-04T16:56:05;13.70;99.90
24408;DHT22;12542;50.924;4.516;2023-01-04T16:58:31;13.70;99.90
24408;DHT22;12542;50.924;4.516;2023-01-04T17:01:18;13.80;99.90
24408;DHT22;12542;50.924;4.516;2023-01-04T17:03:45;13.80;99.90
24408;DHT22;12542;50.924;4.516;2023-01-04T17:06:17;13.80;99.90
24408;DHT22;12542;50.924;4.516;2023-01-04T17:08:45;13.80;99.90
24408;DHT22;12542;50.924;4.516;2023-01-04T17:11:16;13.70;99.90
24408;DHT22;12542;50.924;4.516;2023-01-04T17:13:46;13.70;99.90
24408;DHT22;12542;50.924;4.516;2023-01-04T17:16:12;13.70;99.90
24408;DHT22;12542;50.924;4.516;2023-01-04T17:18:38;13.80;99.90
24408;DHT22;12542;50.924;4.516;2023-01-04T17:21:06;13.80;99.90
24408;DHT22;12542;50.924;4.516;2023-01-04T17:23:39;13.80;99.90
24408;DHT22;12542;50.924;4.516;2023-01-04T17:26:09;13.70;99.90
24408;DHT22;12542;50.924;4.516;2023-01-04T17:28:36;13.70;99.90
24408;DHT22;12542;50.924;4.516;2023-01-04T17:31:07;13.70;99.90
24408;DHT22;12542;50.924;4.516;2023-01-04T17:33:33;13.70;99.90
24408;DHT22;12542;50.924;4.516;2023-01-04T17:36:09;13.70;99.90
24408;DHT22;12542;50.924;4.516;2023-01-04T17:38:36;13.70;99.90